Time;durP1;ratioP1;P1;durP2;ratioP2;P2;SDS_P1;SDS_P2;PMS_P1;PMS_P2;Temp;Humidity;BMP_temperature;BMP_pressure;BME280_temperature;BME280_humidity;BME280_pressure;Samples;Min_cycle;Max_cycle;Signal;HPM_P1;HPM_P2
2023/10/30 06:04:17;;;;;;;5.93;4.60;;;;;;;;;;4990610;28;20532;-69
2023/10/30 06:06:43;;;;;;;12.93;6.10;;;;;;;;;;4992964;28;20831;-71
2023/10/30 06:09:09;;;;;;;8.40;5.10;;;;;;;;;;4992967;28;20407;-71
2023/10/30 06:11:34;;;;;;;8.60;4.50;;;;;;;;;;4992585;28;20443;-71
2023/10/30 06:14:00;;;;;;;9.17;6.17;;;;;;;;;;4992339;28;20411;-70
2023/10/30 06:16:27;;;;;;;17.00;7.50;;;;;;;;;;4992762;28;20407;-71
2023/10/30 06:18:52;;;;;;;14.10;6.50;;;;;;;;;;4992491;28;20564;-70
2023/10/30 06:21:19;;;;;;;15.70;6.77;;;;;;;;;;4992320;28;20514;-70
2023/10/30 06:23:46;;;;;;;13.67;8.30;;;;;;;;;;4992264;28;20577;-70
2023/10/30 06:26:13;;;;;;;14.13;8.67;;;;;;;;;;4992523;28;20471;-70
2023/10/30 06:28:39;;;;;;;10.23;6.83;;;;;;;;;;4992368;28;20755;-70
2023/10/30 06:31:15;;;;;;;11.23;6.43;;;;;;;;;;4992372;28;20893;-71
2023/10/30 06:33:41;;;;;;;13.50;6.87;;;;;;;;;;4992415;28;20410;-70
2023/10/30 06:36:07;;;;;;;10.70;6.53;;;;;;;;;;4992265;28;20888;-71
2023/10/30 06:38:34;;;;;;;12.00;6.20;;;;;;;;;;4992246;28;20417;-70
2023/10/30 06:41:00;;;;;;;10.07;6.27;;;;;;;;;;4990120;28;20479;-71
2023/10/30 06:43:26;;;;;;;13.37;6.40;;;;;;;;;;4984965;28;20438;-72
2023/10/30 06:46:05;;;;;;;13.50;6.40;;;;;;;;;;4991213;28;20989;-71
2023/10/30 06:48:31;;;;;;;14.13;7.73;;;;;;;;;;4991592;28;20414;-72
2023/10/30 06:50:57;;;;;;;21.50;8.53;;;;;;;;;;4991422;28;20465;-71
2023/10/30 06:53:24;;;;;;;14.87;7.10;;;;;;;;;;4991801;28;20415;-70
2023/10/30 06:55:50;;;;;;;16.80;7.30;;;;;;;;;;4991843;28;20410;-71
2023/10/30 06:58:16;;;;;;;13.57;6.60;;;;;;;;;;4991658;28;20918;-71
2023/10/30 07:00:42;;;;;;;11.60;6.77;;;;;;;;;;4972886;28;20473;-71
2023/10/30 07:03:08;;;;;;;9.37;6.90;;;;;;;;;;4985871;28;20465;-71
2023/10/30 07:05:34;;;;;;;15.50;7.00;;;;;;;;;;4991789;28;20466;-70
2023/10/30 07:08:00;;;;;;;13.70;7.47;;;;;;;;;;4992040;28;20458;-70
2023/10/30 07:10:26;;;;;;;13.57;8.27;;;;;;;;;;4991696;28;20407;-70
2023/10/30 07:12:53;;;;;;;21.93;8.00;;;;;;;;;;4991237;28;20522;-71
2023/10/30 07:15:20;;;;;;;11.30;6.50;;;;;;;;;;4991966;28;20833;-71
2023/10/30 07:17:47;;;;;;;15.00;6.77;;;;;;;;;;4991992;28;20789;-70
2023/10/30 07:20:13;;;;;;;16.73;5.93;;;;;;;;;;4990605;28;20434;-69
2023/10/30 07:22:39;;;;;;;11.00;6.40;;;;;;;;;;4991680;28;20898;-70
2023/10/30 07:25:06;;;;;;;7.77;6.23;;;;;;;;;;4989331;28;20618;-72
2023/10/30 07:27:33;;;;;;;14.27;7.17;;;;;;;;;;4982003;28;20427;-72
2023/10/30 07:29:59;;;;;;;12.07;6.97;;;;;;;;;;4989023;28;20465;-71
2023/10/30 07:32:25;;;;;;;10.73;7.03;;;;;;;;;;4984672;28;20447;-72
2023/10/30 07:34:51;;;;;;;10.17;6.17;;;;;;;;;;4992203;28;20411;-72
2023/10/30 07:37:17;;;;;;;8.67;5.27;;;;;;;;;;4991835;28;20410;-72
2023/10/30 07:39:44;;;;;;;13.43;7.90;;;;;;;;;;4991594;28;20497;-71
2023/10/30 07:42:10;;;;;;;13.10;8.47;;;;;;;;;;4989683;28;20820;-71
2023/10/30 07:44:36;;;;;;;15.33;7.67;;;;;;;;;;4991791;28;20494;-72
2023/10/30 07:47:03;;;;;;;8.23;6.47;;;;;;;;;;4977746;28;20933;-73
2023/10/30 07:49:29;;;;;;;12.53;6.37;;;;;;;;;;4954791;28;20424;-71
2023/10/30 07:51:55;;;;;;;10.43;5.33;;;;;;;;;;4974088;28;20447;-71
2023/10/30 07:54:21;;;;;;;9.70;5.03;;;;;;;;;;4991114;28;20422;-71
2023/10/30 07:56:47;;;;;;;10.30;5.07;;;;;;;;;;4990502;28;20506;-72
2023/10/30 07:59:13;;;;;;;7.60;5.80;;;;;;;;;;4976350;28;20423;-72
2023/10/30 08:01:39;;;;;;;6.77;5.13;;;;;;;;;;4994675;28;20770;-72
2023/10/30 08:04:06;;;;;;;7.57;5.10;;;;;;;;;;4994251;28;20438;-73
2023/10/30 08:06:32;;;;;;;8.13;5.20;;;;;;;;;;4994697;28;20541;-72
2023/10/30 08:08:58;;;;;;;10.10;4.97;;;;;;;;;;4988069;28;20430;-71
2023/10/30 08:11:24;;;;;;;9.13;5.50;;;;;;;;;;4993641;28;20505;-72
2023/10/30 08:13:50;;;;;;;7.57;4.80;;;;;;;;;;4996723;28;20473;-72
2023/10/30 08:16:16;;;;;;;6.40;5.07;;;;;;;;;;4994745;28;20458;-71
2023/10/30 08:18:42;;;;;;;11.47;5.70;;;;;;;;;;4976539;28;20426;-72
2023/10/30 08:21:08;;;;;;;10.23;5.40;;;;;;;;;;4994460;28;20578;-72
2023/10/30 08:23:36;;;;;;;8.30;4.17;;;;;;;;;;4992058;28;20509;-72
2023/10/30 08:26:03;;;;;;;8.90;4.50;;;;;;;;;;4975253;28;20463;-73
2023/10/30 08:28:29;;;;;;;9.07;4.30;;;;;;;;;;4975061;28;20900;-71
2023/10/30 08:30:55;;;;;;;13.23;4.47;;;;;;;;;;4975283;28;20439;-71
2023/10/30 08:33:21;;;;;;;5.13;3.77;;;;;;;;;;4974995;28;20408;-72
2023/10/30 08:35:47;;;;;;;7.63;3.53;;;;;;;;;;4985253;28;20423;-72
2023/10/30 08:38:13;;;;;;;5.50;3.50;;;;;;;;;;4992927;28;20478;-72
2023/10/30 08:40:39;;;;;;;7.57;4.07;;;;;;;;;;4983580;28;20915;-72
2023/10/30 08:43:05;;;;;;;16.07;4.40;;;;;;;;;;4988385;28;20922;-72
2023/10/30 08:45:31;;;;;;;10.23;3.97;;;;;;;;;;4991648;28;20486;-71
2023/10/30 08:47:57;;;;;;;9.23;3.23;;;;;;;;;;4981139;28;20827;-73
2023/10/30 08:50:23;;;;;;;6.00;3.37;;;;;;;;;;4984486;28;20423;-73
2023/10/30 08:52:49;;;;;;;5.57;3.60;;;;;;;;;;4994104;28;20442;-73
2023/10/30 08:55:15;;;;;;;8.17;4.60;;;;;;;;;;4983266;28;20416;-73
2023/10/30 08:57:41;;;;;;;7.97;4.13;;;;;;;;;;4965405;28;20442;-73
2023/10/30 09:00:07;;;;;;;6.50;3.83;;;;;;;;;;4980405;28;20424;-73
2023/10/30 09:02:34;;;;;;;6.70;4.70;;;;;;;;;;4984457;28;20447;-73
2023/10/30 09:05:00;;;;;;;5.10;4.13;;;;;;;;;;4982026;28;20514;-71
2023/10/30 09:07:37;;;;;;;5.07;3.80;;;;;;;;;;4988782;28;20431;-70
2023/10/30 09:10:04;;;;;;;14.87;5.20;;;;;;;;;;4981713;28;20906;-72
2023/10/30 09:12:30;;;;;;;11.03;6.47;;;;;;;;;;4974094;28;20428;-72
2023/10/30 09:14:56;;;;;;;7.60;4.87;;;;;;;;;;4974428;28;20420;-74
2023/10/30 09:17:21;;;;;;;7.40;5.13;;;;;;;;;;4974307;28;20420;-74
2023/10/30 09:19:47;;;;;;;14.93;4.80;;;;;;;;;;4974313;28;20432;-74
2023/10/30 09:22:13;;;;;;;9.37;5.03;;;;;;;;;;4979111;28;20441;-74
2023/10/30 09:24:39;;;;;;;8.77;5.73;;;;;;;;;;4993467;28;20556;-73
2023/10/30 09:27:05;;;;;;;9.03;5.77;;;;;;;;;;4993784;28;20770;-73
2023/10/30 09:29:31;;;;;;;8.43;5.80;;;;;;;;;;4993341;28;20441;-73
2023/10/30 09:32:00;;;;;;;9.40;5.63;;;;;;;;;;4993950;28;20523;-73
2023/10/30 09:34:26;;;;;;;11.47;5.13;;;;;;;;;;4987428;28;20856;-72
2023/10/30 09:36:52;;;;;;;8.13;4.90;;;;;;;;;;4974125;28;20972;-73
2023/10/30 09:39:18;;;;;;;7.63;4.90;;;;;;;;;;4973934;28;20883;-73
2023/10/30 09:41:45;;;;;;;7.73;4.70;;;;;;;;;;4990488;28;20469;-75
2023/10/30 09:44:11;;;;;;;6.60;4.67;;;;;;;;;;4990017;28;20416;-74
2023/10/30 09:46:40;;;;;;;9.07;4.90;;;;;;;;;;4973821;28;20526;-73
2023/10/30 09:49:09;;;;;;;13.77;5.90;;;;;;;;;;4974166;28;20408;-74
2023/10/30 09:51:36;;;;;;;10.43;5.30;;;;;;;;;;4973595;28;20954;-73
2023/10/30 09:54:02;;;;;;;9.07;4.87;;;;;;;;;;4973730;28;20747;-74
2023/10/30 09:56:31;;;;;;;6.47;4.37;;;;;;;;;;4973431;28;20423;-74
2023/10/30 09:58:59;;;;;;;9.63;4.40;;;;;;;;;;4973406;28;20919;-73
2023/10/30 10:01:26;;;;;;;5.80;3.93;;;;;;;;;;4986183;28;20541;-75
2023/10/30 10:03:52;;;;;;;11.73;5.60;;;;;;;;;;4992765;28;20451;-73
2023/10/30 10:06:18;;;;;;;9.67;4.03;;;;;;;;;;4992866;28;20471;-74
2023/10/30 10:08:44;;;;;;;7.17;4.03;;;;;;;;;;4993123;28;20430;-74
2023/10/30 10:11:10;;;;;;;7.90;3.80;;;;;;;;;;4992247;28;20477;-75
2023/10/30 10:13:43;;;;;;;7.60;3.90;;;;;;;;;;4992161;28;20497;-72
2023/10/30 10:16:10;;;;;;;7.20;3.80;;;;;;;;;;4989991;28;20427;-74
2023/10/30 10:18:36;;;;;;;10.23;4.50;;;;;;;;;;4992808;28;20411;-74
2023/10/30 10:21:11;;;;;;;7.27;4.20;;;;;;;;;;4991001;28;20901;-73
2023/10/30 10:23:37;;;;;;;5.73;3.70;;;;;;;;;;4993084;28;20461;-73
2023/10/30 10:26:04;;;;;;;5.63;3.17;;;;;;;;;;4992052;28;20961;-73
2023/10/30 10:28:31;;;;;;;5.70;3.00;;;;;;;;;;4992178;28;20506;-73
2023/10/30 10:30:57;;;;;;;6.60;3.93;;;;;;;;;;4977248;28;20450;-73
2023/10/30 10:33:24;;;;;;;10.20;3.50;;;;;;;;;;4973126;28;20408;-73
2023/10/30 10:35:54;;;;;;;4.37;2.93;;;;;;;;;;4992369;28;20945;-71
2023/10/30 10:38:22;;;;;;;6.20;3.10;;;;;;;;;;4992354;28;20411;-72
2023/10/30 10:40:49;;;;;;;5.17;2.70;;;;;;;;;;4990345;28;20492;-70
2023/10/30 10:43:19;;;;;;;4.73;3.00;;;;;;;;;;4991576;28;20426;-74
2023/10/30 10:45:46;;;;;;;4.90;3.47;;;;;;;;;;4992113;28;20466;-73
2023/10/30 10:48:12;;;;;;;4.17;3.47;;;;;;;;;;4992118;28;20433;-73
2023/10/30 10:50:38;;;;;;;6.97;3.50;;;;;;;;;;4991771;28;20567;-72
2023/10/30 10:53:07;;;;;;;10.83;3.47;;;;;;;;;;4991879;28;20407;-72
2023/10/30 10:55:42;;;;;;;5.30;3.47;;;;;;;;;;4991466;28;20910;-72
2023/10/30 10:58:09;;;;;;;5.40;2.90;;;;;;;;;;4986179;28;20934;-73
2023/10/30 11:00:52;;;;;;;3.13;2.00;;;;;;;;;;4981436;28;20447;-75
2023/10/30 11:03:18;;;;;;;5.83;2.23;;;;;;;;;;4991783;28;20854;-73
2023/10/30 11:05:46;;;;;;;3.47;2.03;;;;;;;;;;4987327;28;20545;-72
2023/10/30 11:08:28;;;;;;;4.27;2.70;;;;;;;;;;4991807;28;20427;-72
2023/10/30 11:10:57;;;;;;;4.60;1.37;;;;;;;;;;4979587;28;20942;-72
2023/10/30 11:13:31;;;;;;;3.43;1.73;;;;;;;;;;4972523;28;20483;-71
2023/10/30 11:16:03;;;;;;;2.97;1.83;;;;;;;;;;4972639;28;20506;-73
2023/10/30 11:18:29;;;;;;;2.90;1.50;;;;;;;;;;4991829;28;20423;-72
2023/10/30 11:21:17;;;;;;;2.07;1.40;;;;;;;;;;4980026;28;20962;-71
2023/10/30 11:23:46;;;;;;;3.70;2.27;;;;;;;;;;4973059;28;20419;-72
2023/10/30 11:26:37;;;;;;;2.70;1.57;;;;;;;;;;4972575;28;20467;-72
2023/10/30 11:29:23;;;;;;;4.40;1.60;;;;;;;;;;4972473;28;20462;-72
2023/10/30 11:32:03;;;;;;;2.03;1.83;;;;;;;;;;4972870;28;20435;-71
2023/10/30 11:34:33;;;;;;;2.50;1.57;;;;;;;;;;4978449;28;20415;-71
2023/10/30 11:37:02;;;;;;;2.70;1.63;;;;;;;;;;4976030;28;21058;-72
2023/10/30 11:39:32;;;;;;;1.57;1.37;;;;;;;;;;4975919;28;20459;-71
2023/10/30 11:41:59;;;;;;;2.53;1.73;;;;;;;;;;4958737;28;20534;-72
2023/10/30 11:44:30;;;;;;;4.03;1.87;;;;;;;;;;4958726;28;20451;-71
2023/10/30 11:46:56;;;;;;;4.60;1.90;;;;;;;;;;4975932;28;20416;-73
2023/10/30 11:49:28;;;;;;;5.80;1.50;;;;;;;;;;4975985;28;20412;-72
2023/10/30 11:51:56;;;;;;;1.70;1.60;;;;;;;;;;4975369;28;20515;-73
2023/10/30 11:54:43;;;;;;;3.00;1.67;;;;;;;;;;4975884;28;20403;-73
2023/10/30 11:57:09;;;;;;;3.00;1.63;;;;;;;;;;4965356;28;20512;-74
2023/10/30 11:59:36;;;;;;;1.67;1.33;;;;;;;;;;4975855;28;20483;-73
2023/10/30 12:02:02;;;;;;;3.20;1.60;;;;;;;;;;4993302;28;20442;-73
2023/10/30 12:04:28;;;;;;;5.10;1.60;;;;;;;;;;4994941;28;20891;-72
2023/10/30 12:06:55;;;;;;;3.60;1.87;;;;;;;;;;4977691;28;20517;-73
2023/10/30 12:09:21;;;;;;;1.57;1.20;;;;;;;;;;4975530;28;20832;-73
2023/10/30 12:11:49;;;;;;;2.80;1.57;;;;;;;;;;4975334;28;20459;-73
2023/10/30 12:14:16;;;;;;;2.70;1.60;;;;;;;;;;4976364;28;20495;-73
2023/10/30 12:16:46;;;;;;;3.00;1.87;;;;;;;;;;5177822;23;20899;-73
2023/10/30 12:19:12;;;;;;;1.93;1.40;;;;;;;;;;4975706;28;20404;-73
2023/10/30 12:21:38;;;;;;;3.23;1.60;;;;;;;;;;4961269;28;20620;-73
2023/10/30 12:24:04;;;;;;;1.63;1.30;;;;;;;;;;4956608;29;20420;-73
2023/10/30 12:26:33;;;;;;;3.37;1.70;;;;;;;;;;4961275;28;20826;-72
2023/10/30 12:29:00;;;;;;;1.53;1.53;;;;;;;;;;4958186;28;20516;-73
2023/10/30 12:31:26;;;;;;;2.60;1.97;;;;;;;;;;4963153;28;20417;-72
2023/10/30 12:34:06;;;;;;;3.33;1.87;;;;;;;;;;4944125;28;20439;-72
2023/10/30 12:36:32;;;;;;;2.63;1.60;;;;;;;;;;4962493;28;20444;-73
2023/10/30 12:39:30;;;;;;;5.00;2.27;;;;;;;;;;4967670;28;20464;-72
2023/10/30 12:41:56;;;;;;;2.90;1.80;;;;;;;;;;4915202;28;20443;-72
2023/10/30 12:44:31;;;;;;;5.90;2.03;;;;;;;;;;4938577;29;20421;-72
2023/10/30 12:46:57;;;;;;;2.90;1.70;;;;;;;;;;4971233;28;20451;-73
2023/10/30 12:49:23;;;;;;;2.13;1.73;;;;;;;;;;4975187;28;20414;-75
2023/10/30 12:51:49;;;;;;;7.50;2.03;;;;;;;;;;4974253;28;20518;-76
2023/10/30 12:54:15;;;;;;;2.70;1.83;;;;;;;;;;4975004;28;20416;-74
2023/10/30 12:56:41;;;;;;;2.40;1.83;;;;;;;;;;4987371;28;20442;-75
2023/10/30 12:59:07;;;;;;;7.53;1.90;;;;;;;;;;4994568;28;20492;-72
2023/10/30 13:01:35;;;;;;;2.20;1.50;;;;;;;;;;4990163;28;20437;-74
2023/10/30 13:04:01;;;;;;;2.60;1.67;;;;;;;;;;4975113;28;20412;-75
2023/10/30 13:06:27;;;;;;;1.93;1.60;;;;;;;;;;4964509;28;20503;-74
2023/10/30 13:08:53;;;;;;;3.50;1.80;;;;;;;;;;4972963;28;20485;-73
2023/10/30 13:11:19;;;;;;;2.50;1.90;;;;;;;;;;4973996;28;20756;-74
2023/10/30 13:13:45;;;;;;;3.77;1.90;;;;;;;;;;4975000;28;20594;-73
2023/10/30 13:16:11;;;;;;;2.63;1.90;;;;;;;;;;4977245;28;20474;-74
2023/10/30 13:18:37;;;;;;;3.33;1.70;;;;;;;;;;4975206;28;20813;-73
2023/10/30 13:21:05;;;;;;;5.50;2.90;;;;;;;;;;4969192;28;20509;-73
2023/10/30 13:23:31;;;;;;;3.40;2.00;;;;;;;;;;4939275;29;20472;-74
2023/10/30 13:25:57;;;;;;;5.90;2.50;;;;;;;;;;4978460;28;20520;-72
2023/10/30 13:28:23;;;;;;;2.63;1.73;;;;;;;;;;4995661;28;20407;-73
2023/10/30 13:30:49;;;;;;;4.33;1.70;;;;;;;;;;4987433;28;20423;-73
2023/10/30 13:33:15;;;;;;;3.37;2.03;;;;;;;;;;4956712;29;20417;-74
2023/10/30 13:35:42;;;;;;;2.50;1.90;;;;;;;;;;4977148;28;20507;-73
2023/10/30 13:38:08;;;;;;;4.63;2.07;;;;;;;;;;4994988;28;20907;-73
2023/10/30 13:40:34;;;;;;;4.00;2.00;;;;;;;;;;4994323;28;20414;-72
2023/10/30 13:43:02;;;;;;;5.13;2.07;;;;;;;;;;4977016;28;20431;-72
2023/10/30 13:45:28;;;;;;;5.00;2.17;;;;;;;;;;4986746;28;20579;-73
2023/10/30 13:47:55;;;;;;;6.50;2.17;;;;;;;;;;4972518;28;20511;-73
2023/10/30 13:50:20;;;;;;;48.40;6.97;;;;;;;;;;4974189;28;20415;-74
2023/10/30 13:52:46;;;;;;;2.30;1.87;;;;;;;;;;4956206;28;20416;-73
2023/10/30 13:55:12;;;;;;;4.50;2.40;;;;;;;;;;4954387;28;20425;-73
2023/10/30 13:57:38;;;;;;;4.37;2.73;;;;;;;;;;4954913;28;20424;-72
2023/10/30 14:00:09;;;;;;;2.80;2.03;;;;;;;;;;4956497;29;20417;-73
2023/10/30 14:02:34;;;;;;;7.80;2.70;;;;;;;;;;4981014;28;20422;-73
2023/10/30 14:05:00;;;;;;;3.83;2.70;;;;;;;;;;4984046;28;20532;-73
2023/10/30 14:07:26;;;;;;;4.30;2.17;;;;;;;;;;4964763;28;20416;-72
2023/10/30 14:09:52;;;;;;;6.40;2.40;;;;;;;;;;4976311;28;20428;-72
2023/10/30 14:12:18;;;;;;;4.57;2.10;;;;;;;;;;4977951;28;20814;-73
2023/10/30 14:14:47;;;;;;;6.50;2.50;;;;;;;;;;4974963;28;20451;-73
2023/10/30 14:17:14;;;;;;;3.47;2.20;;;;;;;;;;4960844;28;20503;-73
2023/10/30 14:19:40;;;;;;;5.40;2.40;;;;;;;;;;4954464;29;20444;-72
2023/10/30 14:22:06;;;;;;;7.63;2.63;;;;;;;;;;4954924;28;20425;-73
2023/10/30 14:24:32;;;;;;;4.60;1.80;;;;;;;;;;4955967;29;20980;-72
2023/10/30 14:26:58;;;;;;;4.30;1.90;;;;;;;;;;4974460;28;20996;-72
2023/10/30 14:29:23;;;;;;;2.83;2.00;;;;;;;;;;4993151;28;20790;-73
2023/10/30 14:31:49;;;;;;;9.60;2.60;;;;;;;;;;4966046;28;20519;-72
2023/10/30 14:34:15;;;;;;;4.73;2.13;;;;;;;;;;4957163;29;20397;-73
2023/10/30 14:36:41;;;;;;;3.67;2.67;;;;;;;;;;4972774;28;20479;-73
2023/10/30 14:39:08;;;;;;;214.93;28.17;;;;;;;;;;4995380;28;20431;-70
2023/10/30 14:41:35;;;;;;;9.60;3.30;;;;;;;;;;4972263;28;20408;-71
2023/10/30 14:44:01;;;;;;;2.40;1.87;;;;;;;;;;4938011;29;20531;-71
2023/10/30 14:46:27;;;;;;;4.30;2.50;;;;;;;;;;4958557;28;20502;-69
2023/10/30 14:48:53;;;;;;;2.70;1.47;;;;;;;;;;4936906;29;20492;-71
2023/10/30 14:51:19;;;;;;;6.13;2.40;;;;;;;;;;4953650;28;20464;-69
2023/10/30 14:53:45;;;;;;;7.43;2.10;;;;;;;;;;4968481;28;20423;-69
2023/10/30 14:56:11;;;;;;;4.00;1.97;;;;;;;;;;4972838;28;20444;-69
2023/10/30 14:58:37;;;;;;;4.20;2.10;;;;;;;;;;4965796;28;20490;-69
2023/10/30 15:01:03;;;;;;;4.07;2.40;;;;;;;;;;4972880;28;20435;-69
2023/10/30 15:03:29;;;;;;;5.30;2.37;;;;;;;;;;4955476;28;20969;-69
2023/10/30 15:05:55;;;;;;;6.40;3.17;;;;;;;;;;4972794;28;20471;-69
2023/10/30 15:08:21;;;;;;;8.60;3.33;;;;;;;;;;4974974;28;20408;-70
2023/10/30 15:10:48;;;;;;;68.83;9.23;;;;;;;;;;4949798;28;20460;-70
2023/10/30 15:13:14;;;;;;;15.47;4.80;;;;;;;;;;4965929;28;20435;-71
2023/10/30 15:15:40;;;;;;;18.47;3.97;;;;;;;;;;4969831;28;20974;-70
2023/10/30 15:18:06;;;;;;;8.07;3.83;;;;;;;;;;4976879;28;20408;-71
2023/10/30 15:20:32;;;;;;;5.93;2.50;;;;;;;;;;4976666;28;20416;-71
2023/10/30 15:22:59;;;;;;;7.17;2.73;;;;;;;;;;4976785;28;20459;-70
2023/10/30 15:25:25;;;;;;;4.93;2.37;;;;;;;;;;4976451;28;20493;-70
2023/10/30 15:27:50;;;;;;;6.47;2.90;;;;;;;;;;4976740;28;20827;-71
2023/10/30 15:30:17;;;;;;;11.70;4.67;;;;;;;;;;4975998;28;20427;-70
2023/10/30 15:32:43;;;;;;;12.93;3.30;;;;;;;;;;4976758;28;20418;-71
2023/10/30 15:35:09;;;;;;;5.80;2.40;;;;;;;;;;4990291;28;20894;-72
2023/10/30 15:37:35;;;;;;;6.73;3.20;;;;;;;;;;4976291;28;20535;-72
2023/10/30 15:40:02;;;;;;;8.60;3.03;;;;;;;;;;4964260;28;20464;-71
2023/10/30 15:42:29;;;;;;;5.87;2.87;;;;;;;;;;4957239;29;20420;-70
2023/10/30 15:44:55;;;;;;;9.07;2.90;;;;;;;;;;4960440;28;20472;-70
2023/10/30 15:47:21;;;;;;;4.27;2.40;;;;;;;;;;4957271;29;20405;-71
2023/10/30 15:49:48;;;;;;;3.90;2.40;;;;;;;;;;4957848;28;20454;-71
2023/10/30 15:52:14;;;;;;;10.60;2.60;;;;;;;;;;4957447;29;20415;-70
2023/10/30 15:54:40;;;;;;;4.73;2.80;;;;;;;;;;4975604;28;20410;-71
2023/10/30 15:57:07;;;;;;;3.73;2.60;;;;;;;;;;4995868;28;20438;-73
2023/10/30 15:59:33;;;;;;;8.77;3.80;;;;;;;;;;4995910;28;20417;-71
2023/10/30 16:01:59;;;;;;;8.00;3.40;;;;;;;;;;4962465;28;20448;-71
2023/10/30 16:04:25;;;;;;;9.53;3.53;;;;;;;;;;4963162;28;20428;-72
2023/10/30 16:06:51;;;;;;;3.93;2.60;;;;;;;;;;4968851;28;20471;-71
2023/10/30 16:09:17;;;;;;;5.03;2.40;;;;;;;;;;4974774;28;20942;-72
2023/10/30 16:11:44;;;;;;;10.60;3.60;;;;;;;;;;4971908;28;20437;-72
2023/10/30 16:14:10;;;;;;;2.93;2.77;;;;;;;;;;4944269;28;20428;-71
2023/10/30 16:16:36;;;;;;;6.63;2.90;;;;;;;;;;4978478;28;20874;-72
2023/10/30 16:19:02;;;;;;;4.50;2.50;;;;;;;;;;4958875;28;20935;-70
2023/10/30 16:21:28;;;;;;;5.27;2.30;;;;;;;;;;4976019;28;20452;-70
2023/10/30 16:23:54;;;;;;;9.13;3.20;;;;;;;;;;4971327;28;20839;-70
2023/10/30 16:26:20;;;;;;;3.43;2.70;;;;;;;;;;4995190;28;20474;-71
2023/10/30 16:28:46;;;;;;;9.07;3.90;;;;;;;;;;4994797;28;20490;-72
2023/10/30 16:31:12;;;;;;;8.20;3.43;;;;;;;;;;4963601;28;20787;-71
2023/10/30 16:33:38;;;;;;;4.63;2.53;;;;;;;;;;4960489;28;20409;-70
2023/10/30 16:36:04;;;;;;;7.87;3.10;;;;;;;;;;4967199;28;20499;-71
2023/10/30 16:38:30;;;;;;;8.30;3.07;;;;;;;;;;4952845;28;20502;-70
2023/10/30 16:40:56;;;;;;;9.00;3.40;;;;;;;;;;4964818;28;20455;-70
2023/10/30 16:43:22;;;;;;;7.37;3.80;;;;;;;;;;4959992;28;20429;-73
2023/10/30 16:45:48;;;;;;;7.00;2.93;;;;;;;;;;4955124;29;20468;-74
2023/10/30 16:48:14;;;;;;;7.40;3.10;;;;;;;;;;4960496;28;20420;-73
2023/10/30 16:50:40;;;;;;;7.30;3.37;;;;;;;;;;4975029;28;20507;-73
2023/10/30 16:53:05;;;;;;;8.97;4.10;;;;;;;;;;4975379;28;20412;-71
2023/10/30 16:55:31;;;;;;;7.07;4.00;;;;;;;;;;4975864;28;20486;-74
2023/10/30 16:57:57;;;;;;;8.37;3.27;;;;;;;;;;4975398;28;20411;-74
2023/10/30 17:00:24;;;;;;;9.70;4.63;;;;;;;;;;4975294;28;20482;-71
2023/10/30 17:02:50;;;;;;;7.67;3.97;;;;;;;;;;4976375;28;20419;-70
2023/10/30 17:05:16;;;;;;;8.17;4.10;;;;;;;;;;4992077;28;20491;-73
2023/10/30 17:07:42;;;;;;;7.50;4.07;;;;;;;;;;5000737;28;20413;-75
2023/10/30 17:10:09;;;;;;;8.50;3.70;;;;;;;;;;4985561;28;20419;-74
2023/10/30 17:12:35;;;;;;;9.23;4.93;;;;;;;;;;4955843;29;20415;-73
2023/10/30 17:15:00;;;;;;;10.73;4.43;;;;;;;;;;4955584;28;20417;-73
2023/10/30 17:17:26;;;;;;;9.83;5.23;;;;;;;;;;4955734;29;20468;-73
2023/10/30 17:19:52;;;;;;;7.93;4.90;;;;;;;;;;4955677;29;20420;-74
2023/10/30 17:22:18;;;;;;;8.30;4.73;;;;;;;;;;4955563;29;20872;-73
2023/10/30 17:24:44;;;;;;;7.67;4.90;;;;;;;;;;4955604;28;20419;-73
2023/10/30 17:27:13;;;;;;;10.80;5.07;;;;;;;;;;4955571;29;20409;-73
2023/10/30 17:29:38;;;;;;;8.00;4.77;;;;;;;;;;4938307;28;20792;-72
2023/10/30 17:32:05;;;;;;;9.10;4.90;;;;;;;;;;4955247;29;20417;-73
2023/10/30 17:34:30;;;;;;;13.50;6.07;;;;;;;;;;4938430;29;20428;-73
2023/10/30 17:36:56;;;;;;;10.83;5.90;;;;;;;;;;4955769;28;20776;-72
2023/10/30 17:39:22;;;;;;;10.50;4.90;;;;;;;;;;4975151;28;20458;-71
2023/10/30 17:41:48;;;;;;;11.63;4.37;;;;;;;;;;4974368;28;20965;-73
2023/10/30 17:44:14;;;;;;;9.57;6.03;;;;;;;;;;4974701;28;20415;-74
2023/10/30 17:46:40;;;;;;;14.43;5.90;;;;;;;;;;4974577;28;20474;-74
2023/10/30 17:49:06;;;;;;;12.43;5.20;;;;;;;;;;4975435;28;20423;-74
2023/10/30 17:51:32;;;;;;;6.30;4.30;;;;;;;;;;4957174;28;20953;-73
2023/10/30 17:53:58;;;;;;;9.57;5.50;;;;;;;;;;4974162;28;20903;-75
2023/10/30 17:56:29;;;;;;;10.90;4.70;;;;;;;;;;4974558;28;20471;-74
2023/10/30 17:58:55;;;;;;;9.10;5.50;;;;;;;;;;4974514;28;20416;-73
2023/10/30 18:01:21;;;;;;;15.13;4.80;;;;;;;;;;4956479;28;20415;-73
2023/10/30 18:03:47;;;;;;;11.53;4.97;;;;;;;;;;4974228;28;20427;-72
2023/10/30 18:06:13;;;;;;;10.60;5.00;;;;;;;;;;4973611;28;20498;-72
2023/10/30 18:08:39;;;;;;;11.33;5.80;;;;;;;;;;4974043;28;20550;-72
2023/10/30 18:11:06;;;;;;;8.30;4.60;;;;;;;;;;4973764;28;20415;-72
2023/10/30 18:13:32;;;;;;;9.20;4.97;;;;;;;;;;4974014;28;20818;-73
2023/10/30 18:15:58;;;;;;;12.40;6.43;;;;;;;;;;4983796;23;20522;-77
2023/10/30 18:18:24;;;;;;;13.40;8.10;;;;;;;;;;4992952;28;20435;-77
2023/10/30 18:20:50;;;;;;;18.10;8.40;;;;;;;;;;4975521;28;20443;-78
2023/10/30 18:23:16;;;;;;;16.73;7.83;;;;;;;;;;4994005;28;20493;-78
2023/10/30 18:25:42;;;;;;;13.90;7.20;;;;;;;;;;4989619;28;21016;-77
2023/10/30 18:28:15;;;;;;;13.03;7.87;;;;;;;;;;4972835;28;20420;-75
2023/10/30 18:30:40;;;;;;;16.97;7.47;;;;;;;;;;4974772;28;20425;-75
2023/10/30 18:33:06;;;;;;;14.37;7.53;;;;;;;;;;4973327;28;20495;-75
2023/10/30 18:35:32;;;;;;;16.77;7.57;;;;;;;;;;4973806;28;20951;-77
2023/10/30 18:37:59;;;;;;;14.40;6.57;;;;;;;;;;4973809;28;20420;-74
2023/10/30 18:40:26;;;;;;;12.80;6.80;;;;;;;;;;4972931;28;20415;-75
2023/10/30 18:42:52;;;;;;;9.30;5.90;;;;;;;;;;4972859;28;20412;-74
2023/10/30 18:45:19;;;;;;;8.40;5.40;;;;;;;;;;4955870;28;20467;-74
2023/10/30 18:47:44;;;;;;;12.77;5.53;;;;;;;;;;4973512;28;20498;-74
2023/10/30 18:50:11;;;;;;;10.50;7.03;;;;;;;;;;4973030;28;20440;-74
2023/10/30 18:52:37;;;;;;;12.67;7.33;;;;;;;;;;4972643;28;20412;-74
2023/10/30 18:55:04;;;;;;;17.63;5.80;;;;;;;;;;4972851;28;20504;-74
2023/10/30 18:57:30;;;;;;;13.63;6.47;;;;;;;;;;4972847;28;20436;-74
2023/10/30 18:59:58;;;;;;;12.07;5.97;;;;;;;;;;4972565;28;20779;-74
2023/10/30 19:02:24;;;;;;;18.73;8.70;;;;;;;;;;4972793;28;20423;-74
2023/10/30 19:04:50;;;;;;;12.83;7.13;;;;;;;;;;4955345;28;20427;-74
2023/10/30 19:07:16;;;;;;;10.83;7.13;;;;;;;;;;4972607;28;20443;-74
2023/10/30 19:09:42;;;;;;;10.00;5.73;;;;;;;;;;4973079;28;20419;-74
2023/10/30 19:12:08;;;;;;;9.83;6.07;;;;;;;;;;4972947;28;20415;-74
2023/10/30 19:14:34;;;;;;;10.07;6.27;;;;;;;;;;4973336;28;20404;-75
2023/10/30 19:17:00;;;;;;;18.77;8.00;;;;;;;;;;4972825;28;21002;-73
2023/10/30 19:19:26;;;;;;;9.53;6.60;;;;;;;;;;4972794;28;20442;-73
2023/10/30 19:21:53;;;;;;;13.10;7.10;;;;;;;;;;4973764;28;20498;-73
2023/10/30 19:24:19;;;;;;;9.60;6.07;;;;;;;;;;4973650;28;20467;-73
2023/10/30 19:26:45;;;;;;;6.80;4.37;;;;;;;;;;4973888;28;20467;-73
2023/10/30 19:29:11;;;;;;;12.00;6.07;;;;;;;;;;4956502;28;20431;-73
2023/10/30 19:31:37;;;;;;;10.00;5.70;;;;;;;;;;4972917;28;20896;-73
2023/10/30 19:34:03;;;;;;;10.10;5.50;;;;;;;;;;4972864;28;20408;-73
2023/10/30 19:36:29;;;;;;;9.70;5.67;;;;;;;;;;4971950;28;20459;-74
2023/10/30 19:38:55;;;;;;;9.80;4.70;;;;;;;;;;4972637;28;20466;-73
2023/10/30 19:41:21;;;;;;;7.73;5.27;;;;;;;;;;4972473;28;20896;-71
2023/10/30 19:43:47;;;;;;;10.27;4.30;;;;;;;;;;4972263;28;20470;-72
2023/10/30 19:46:16;;;;;;;6.93;4.70;;;;;;;;;;4972233;28;20471;-72
2023/10/30 19:48:42;;;;;;;7.57;4.60;;;;;;;;;;4972435;28;20918;-73
2023/10/30 19:51:08;;;;;;;9.27;4.60;;;;;;;;;;4955032;28;20424;-73
2023/10/30 19:53:34;;;;;;;7.73;5.03;;;;;;;;;;4973099;28;20420;-73
2023/10/30 19:56:00;;;;;;;7.23;4.50;;;;;;;;;;4976411;28;20915;-73
2023/10/30 19:58:26;;;;;;;8.47;4.10;;;;;;;;;;4976415;28;20416;-73
2023/10/30 20:00:52;;;;;;;6.47;4.50;;;;;;;;;;4976136;28;20451;-73
2023/10/30 20:03:19;;;;;;;6.00;3.40;;;;;;;;;;4976953;28;20490;-73
2023/10/30 20:05:45;;;;;;;6.17;3.80;;;;;;;;;;4976421;28;21008;-73
2023/10/30 20:08:11;;;;;;;9.27;4.40;;;;;;;;;;4976381;28;20427;-73
2023/10/30 20:10:37;;;;;;;6.90;4.00;;;;;;;;;;4977515;28;20416;-74
2023/10/30 20:13:03;;;;;;;7.63;3.83;;;;;;;;;;4977980;28;20988;-75
2023/10/30 20:15:29;;;;;;;8.27;4.83;;;;;;;;;;4975824;28;20510;-73
2023/10/30 20:17:55;;;;;;;8.43;4.40;;;;;;;;;;4971650;28;20443;-73
2023/10/30 20:20:21;;;;;;;7.63;5.00;;;;;;;;;;4974514;28;20434;-73
2023/10/30 20:22:47;;;;;;;6.90;3.27;;;;;;;;;;4975598;28;20425;-72
2023/10/30 20:25:14;;;;;;;7.63;3.80;;;;;;;;;;4974850;28;20834;-72
2023/10/30 20:27:40;;;;;;;8.40;4.83;;;;;;;;;;4960164;28;20432;-73
2023/10/30 20:30:06;;;;;;;4.23;3.30;;;;;;;;;;4967657;28;20420;-73
2023/10/30 20:32:32;;;;;;;4.73;2.97;;;;;;;;;;4955845;28;20487;-73
2023/10/30 20:34:58;;;;;;;9.13;3.50;;;;;;;;;;4963786;28;20456;-73
2023/10/30 20:37:24;;;;;;;6.20;3.50;;;;;;;;;;4975157;28;20436;-73
2023/10/30 20:39:50;;;;;;;6.50;3.30;;;;;;;;;;4974959;28;20804;-73